createdAt,value
2018-11-29T00:00:16.594Z,5.27
2018-11-29T00:02:44.606Z,3.83
2018-11-29T00:05:12.134Z,5.00
2018-11-29T00:07:39.642Z,3.27
2018-11-29T00:10:07.286Z,3.27
2018-11-29T00:12:35.028Z,5.20
2018-11-29T00:15:02.734Z,5.87
2018-11-29T00:17:30.311Z,5.83
2018-11-29T00:19:57.840Z,6.67
2018-11-29T00:22:25.343Z,6.47
2018-11-29T00:24:52.844Z,6.90
2018-11-29T00:27:20.330Z,5.90
2018-11-29T00:29:48.978Z,6.40
2018-11-29T00:32:16.458Z,6.47
2018-11-29T00:34:43.948Z,5.30
2018-11-29T00:37:11.388Z,5.00
2018-11-29T00:39:38.895Z,6.40
2018-11-29T00:42:06.422Z,5.70
2018-11-29T00:44:34.088Z,6.62
2018-11-29T00:47:01.612Z,6.90
2018-11-29T00:49:29.125Z,6.07
2018-11-29T00:51:56.713Z,3.57
2018-11-29T00:54:24.216Z,5.30
2018-11-29T00:56:51.877Z,6.60
2018-11-29T00:59:19.354Z,6.43
2018-11-29T01:01:52.688Z,7.20
2018-11-29T01:04:20.256Z,5.83
2018-11-29T01:06:47.768Z,6.90
2018-11-29T01:09:15.311Z,5.77
2018-11-29T01:11:42.936Z,5.35
2018-11-29T01:14:10.429Z,6.33
2018-11-29T01:16:37.985Z,7.25
2018-11-29T01:19:05.611Z,7.28
2018-11-29T01:21:33.167Z,6.73
2018-11-29T01:24:00.697Z,7.13
2018-11-29T01:26:28.214Z,7.92
2018-11-29T01:28:55.896Z,7.30
2018-11-29T01:31:23.345Z,7.43
2018-11-29T01:33:50.925Z,8.53
2018-11-29T01:36:18.438Z,7.03
2018-11-29T01:38:45.932Z,7.97
2018-11-29T01:41:13.364Z,5.50
2018-11-29T01:43:40.908Z,7.83
2018-11-29T01:46:08.540Z,7.17
2018-11-29T01:48:36.022Z,7.03
2018-11-29T01:51:03.479Z,7.27
2018-11-29T01:53:31.139Z,7.07
2018-11-29T01:55:58.647Z,5.67
2018-11-29T01:58:26.234Z,5.00
2018-11-29T02:00:53.741Z,7.07
2018-11-29T02:03:21.426Z,9.10
2018-11-29T02:05:48.953Z,6.95
2018-11-29T02:08:16.509Z,5.97
2018-11-29T02:10:49.303Z,7.30
2018-11-29T02:13:17.689Z,6.43
2018-11-29T02:15:45.305Z,9.23
2018-11-29T02:18:12.955Z,9.37
2018-11-29T02:20:40.474Z,8.87
2018-11-29T02:23:07.965Z,8.80
2018-11-29T02:25:35.505Z,8.10
2018-11-29T02:28:02.974Z,9.17
2018-11-29T02:30:30.691Z,9.23
2018-11-29T02:32:58.168Z,6.83
2018-11-29T02:35:25.657Z,7.33
2018-11-29T02:37:53.217Z,9.37
2018-11-29T02:40:20.733Z,8.30
2018-11-29T02:42:48.949Z,7.90
2018-11-29T02:45:20.703Z,7.37
2018-11-29T02:47:48.202Z,6.63
2018-11-29T02:50:15.747Z,8.23
2018-11-29T02:52:43.287Z,9.73
2018-11-29T02:55:11.365Z,11.23
2018-11-29T02:57:39.181Z,10.13
2018-11-29T03:00:12.012Z,8.57
2018-11-29T03:02:39.509Z,8.80
2018-11-29T03:05:07.283Z,10.77
2018-11-29T03:07:34.965Z,10.13
2018-11-29T03:10:02.963Z,9.53
2018-11-29T03:12:30.551Z,11.88
2018-11-29T03:14:58.015Z,11.30
2018-11-29T03:17:25.463Z,10.43
2018-11-29T03:19:52.925Z,6.43
2018-11-29T03:22:20.416Z,7.60
2018-11-29T03:24:47.995Z,9.57
2018-11-29T03:27:15.695Z,10.53
2018-11-29T03:29:43.167Z,9.57
2018-11-29T03:32:10.680Z,10.27
2018-11-29T03:34:38.691Z,10.57
2018-11-29T03:37:06.810Z,9.30
2018-11-29T03:39:34.302Z,9.43
2018-11-29T03:42:01.940Z,8.70
2018-11-29T03:44:29.391Z,11.83
2018-11-29T03:46:56.958Z,11.30
2018-11-29T03:49:24.463Z,11.33
2018-11-29T03:51:51.963Z,10.40
2018-11-29T03:54:19.473Z,11.77
2018-11-29T03:56:47.040Z,9.60
2018-11-29T03:59:14.676Z,12.73
2018-11-29T04:01:42.242Z,10.90
2018-11-29T04:04:09.755Z,7.07
2018-11-29T04:06:37.235Z,7.40
2018-11-29T04:09:09.737Z,12.03
2018-11-29T04:11:37.527Z,9.80
2018-11-29T04:14:05.420Z,11.63
2018-11-29T04:16:32.906Z,11.90
2018-11-29T04:19:01.273Z,13.17
2018-11-29T04:21:28.728Z,12.50
2018-11-29T04:23:56.210Z,13.50
2018-11-29T04:26:23.687Z,13.75
2018-11-29T04:28:51.246Z,13.20
2018-11-29T04:31:18.709Z,13.80
2018-11-29T04:33:46.170Z,11.93
2018-11-29T04:36:13.752Z,12.37
2018-11-29T04:38:41.243Z,13.80
2018-11-29T04:41:08.979Z,12.07
2018-11-29T04:43:36.660Z,15.10
2018-11-29T04:46:43.192Z,13.20
2018-11-29T04:49:10.756Z,10.07
2018-11-29T04:51:38.236Z,15.10
2018-11-29T04:54:06.456Z,14.47
2018-11-29T04:56:34.039Z,14.10
2018-11-29T04:59:01.587Z,9.57
2018-11-29T05:01:29.145Z,11.97
2018-11-29T05:03:56.654Z,11.70
2018-11-29T05:06:24.250Z,10.47
2018-11-29T05:08:52.080Z,13.32
2018-11-29T05:11:19.589Z,16.30
2018-11-29T05:13:47.070Z,15.00
2018-11-29T05:16:14.551Z,16.37
2018-11-29T05:18:42.450Z,14.83
2018-11-29T05:21:09.975Z,15.60
2018-11-29T05:23:37.442Z,16.00
2018-11-29T05:26:05.476Z,13.75
2018-11-29T05:28:33.046Z,16.33
2018-11-29T05:31:00.511Z,16.48
2018-11-29T05:33:28.088Z,17.67
2018-11-29T05:35:55.629Z,8.23
2018-11-29T05:38:23.103Z,13.83
2018-11-29T05:40:50.571Z,18.00
2018-11-29T05:43:18.071Z,18.33
2018-11-29T05:45:45.574Z,18.10
2018-11-29T05:48:13.050Z,17.90
2018-11-29T05:50:40.795Z,17.37
2018-11-29T05:53:08.262Z,18.25
2018-11-29T05:55:35.797Z,18.32
2018-11-29T05:58:03.288Z,17.00
2018-11-29T06:00:30.843Z,18.40
2018-11-29T06:02:58.360Z,17.53
2018-11-29T06:05:25.945Z,15.97
2018-11-29T06:07:53.616Z,16.52
2018-11-29T06:10:21.212Z,17.33
2018-11-29T06:12:48.692Z,19.30
2018-11-29T06:15:16.216Z,17.50
2018-11-29T06:17:43.748Z,15.55
2018-11-29T06:20:12.575Z,17.48
2018-11-29T06:22:40.412Z,14.25
2018-11-29T06:25:08.914Z,17.07
2018-11-29T06:27:36.412Z,14.28
2018-11-29T06:30:07.392Z,16.52
2018-11-29T06:32:34.942Z,16.80
2018-11-29T06:35:02.563Z,17.17
2018-11-29T06:37:30.589Z,15.78
2018-11-29T06:39:58.126Z,13.87
2018-11-29T06:42:25.711Z,13.00
2018-11-29T06:44:53.302Z,13.58
2018-11-29T06:47:20.815Z,13.33
2018-11-29T06:49:48.363Z,14.77
2018-11-29T06:52:18.836Z,16.40
2018-11-29T06:54:46.408Z,17.47
2018-11-29T06:57:13.913Z,14.83
2018-11-29T06:59:41.395Z,15.47
2018-11-29T07:02:08.960Z,17.07
2018-11-29T07:04:36.695Z,16.93
2018-11-29T07:07:04.628Z,15.03
2018-11-29T07:09:32.192Z,17.73
2018-11-29T07:11:59.720Z,19.17
2018-11-29T07:14:27.252Z,19.03
2018-11-29T07:16:54.886Z,10.10
2018-11-29T07:19:22.432Z,17.23
2018-11-29T07:21:53.196Z,17.02
2018-11-29T07:24:20.880Z,18.97
2018-11-29T07:26:48.439Z,16.57
2018-11-29T07:29:17.073Z,19.67
2018-11-29T07:31:43.605Z,17.55
2018-11-29T07:34:11.220Z,20.07
2018-11-29T07:36:38.960Z,19.48
2018-11-29T07:39:08.352Z,19.20
2018-11-29T07:41:36.738Z,18.80
2018-11-29T07:44:07.608Z,16.65
2018-11-29T07:46:35.330Z,19.20
2018-11-29T07:49:02.998Z,14.47
2018-11-29T07:51:30.625Z,18.50
2018-11-29T07:53:58.144Z,17.35
2018-11-29T07:56:25.748Z,11.60
2018-11-29T07:58:53.275Z,17.30
2018-11-29T08:01:20.858Z,19.02
2018-11-29T08:03:48.679Z,16.83
2018-11-29T08:06:16.275Z,20.12
2018-11-29T08:08:43.762Z,18.67
2018-11-29T08:11:11.494Z,18.87
2018-11-29T08:13:39.333Z,15.28
2018-11-29T08:16:07.029Z,18.33
2018-11-29T08:18:34.605Z,16.23
2018-11-29T08:21:02.129Z,18.43
2018-11-29T08:23:29.745Z,13.40
2018-11-29T08:25:57.274Z,17.95
2018-11-29T08:28:24.765Z,16.53
2018-11-29T08:30:52.249Z,17.93
2018-11-29T08:33:19.718Z,19.03
2018-11-29T08:35:47.311Z,17.45
2018-11-29T08:38:15.073Z,13.07
2018-11-29T08:40:42.632Z,18.40
2018-11-29T08:43:10.307Z,14.13
2018-11-29T08:45:37.834Z,16.73
2018-11-29T08:48:06.110Z,12.00
2018-11-29T08:50:33.717Z,16.00
2018-11-29T08:53:01.244Z,14.90
2018-11-29T08:55:28.789Z,11.80
2018-11-29T08:57:56.413Z,16.50
2018-11-29T09:00:23.904Z,12.27
2018-11-29T09:02:51.440Z,13.60
2018-11-29T09:05:19.150Z,15.90
2018-11-29T09:07:47.572Z,13.00
2018-11-29T09:10:16.328Z,18.97
2018-11-29T09:12:43.799Z,15.40
2018-11-29T09:15:12.606Z,18.13
2018-11-29T09:17:40.252Z,18.07
2018-11-29T09:20:10.997Z,16.57
2018-11-29T09:22:38.544Z,20.80
2018-11-29T09:25:08.813Z,21.53
2018-11-29T09:27:36.410Z,20.87
2018-11-29T09:30:08.027Z,20.53
2018-11-29T09:32:35.498Z,20.57
2018-11-29T09:35:03.015Z,18.37
2018-11-29T09:37:30.501Z,21.40
2018-11-29T09:39:58.011Z,20.00
2018-11-29T09:42:25.515Z,16.10
2018-11-29T09:44:53.021Z,21.00
2018-11-29T09:47:20.789Z,23.73
2018-11-29T09:49:48.272Z,23.27
2018-11-29T09:52:15.762Z,13.88
2018-11-29T09:54:43.371Z,22.87
2018-11-29T09:57:10.867Z,24.07
2018-11-29T09:59:38.371Z,19.50
2018-11-29T10:02:05.883Z,21.10
2018-11-29T10:04:33.569Z,21.83
2018-11-29T10:07:01.087Z,21.82
2018-11-29T10:09:28.603Z,24.83
2018-11-29T10:11:56.104Z,11.03
2018-11-29T10:14:23.592Z,22.43
2018-11-29T10:16:51.134Z,19.07
2018-11-29T10:19:18.751Z,23.27
2018-11-29T10:21:46.325Z,23.32
2018-11-29T10:24:13.897Z,13.43
2018-11-29T10:26:41.360Z,25.30
2018-11-29T10:29:08.858Z,12.67
2018-11-29T10:31:36.367Z,22.80
2018-11-29T10:34:03.931Z,25.97
2018-11-29T10:36:31.472Z,22.10
2018-11-29T10:38:59.011Z,12.10
2018-11-29T10:41:26.778Z,26.20
2018-11-29T10:43:54.272Z,25.35
2018-11-29T10:46:21.758Z,22.62
2018-11-29T10:48:49.224Z,12.98
2018-11-29T10:51:16.780Z,18.32
2018-11-29T10:53:44.232Z,23.15
2018-11-29T10:56:11.695Z,24.98
2018-11-29T10:58:39.197Z,19.42
2018-11-29T11:01:12.348Z,21.80
2018-11-29T11:03:39.837Z,26.05
2018-11-29T11:06:07.571Z,21.73
2018-11-29T11:08:35.072Z,24.47
2018-11-29T11:11:05.970Z,26.40
2018-11-29T11:13:33.585Z,26.17
2018-11-29T11:16:01.077Z,25.60
2018-11-29T11:18:28.620Z,20.30
2018-11-29T11:20:56.179Z,20.88
2018-11-29T11:23:23.695Z,25.90
2018-11-29T11:25:51.261Z,24.50
2018-11-29T11:28:18.815Z,25.08
2018-11-29T11:30:46.296Z,20.32
2018-11-29T11:33:13.843Z,21.50
2018-11-29T11:35:41.449Z,16.50
2018-11-29T11:38:08.983Z,13.90
2018-11-29T11:40:36.467Z,18.25
2018-11-29T11:43:05.226Z,21.43
2018-11-29T11:45:31.606Z,23.95
2018-11-29T11:48:03.297Z,24.33
2018-11-29T11:50:26.666Z,19.12
2018-11-29T11:52:54.780Z,25.02
2018-11-29T11:55:22.249Z,21.23
2018-11-29T11:57:49.788Z,23.35
2018-11-29T12:00:26.512Z,22.55
2018-11-29T12:02:57.097Z,16.77
2018-11-29T12:05:24.706Z,24.75
2018-11-29T12:07:52.277Z,24.00
2018-11-29T12:10:19.833Z,21.40
2018-11-29T12:12:47.404Z,24.00
2018-11-29T12:15:15.474Z,23.43
2018-11-29T12:17:44.878Z,18.67
2018-11-29T12:27:02.832Z,19.57
2018-11-29T12:29:30.348Z,18.77
2018-11-29T12:31:57.836Z,13.87
2018-11-29T12:34:25.320Z,9.33
2018-11-29T12:36:52.832Z,16.40
2018-11-29T12:39:20.743Z,8.58
2018-11-29T12:41:48.178Z,20.20
2018-11-29T12:44:15.691Z,20.90
2018-11-29T12:46:43.142Z,12.53
2018-11-29T12:49:10.619Z,19.60
2018-11-29T12:51:38.140Z,13.27
2018-11-29T12:54:06.132Z,19.40
2018-11-29T12:56:33.663Z,9.70
2018-11-29T12:59:01.290Z,16.10
2018-11-29T13:01:30.148Z,19.55
2018-11-29T13:04:00.271Z,15.70
2018-11-29T13:06:27.882Z,13.20
2018-11-29T13:09:00.903Z,15.33
2018-11-29T13:11:28.822Z,14.53
2018-11-29T13:13:56.418Z,16.15
2018-11-29T13:16:24.030Z,16.63
2018-11-29T13:18:51.847Z,14.30
2018-11-29T13:21:19.368Z,12.10
2018-11-29T13:23:46.954Z,7.27
2018-11-29T13:26:14.473Z,10.90
2018-11-29T13:28:41.989Z,15.10
2018-11-29T13:31:09.533Z,8.13
2018-11-29T13:33:37.100Z,13.13
2018-11-29T13:36:05.375Z,9.90
2018-11-29T13:38:32.842Z,12.43
2018-11-29T13:41:00.349Z,14.93
2018-11-29T13:43:27.843Z,16.07
2018-11-29T13:45:55.336Z,12.13
2018-11-29T13:48:22.827Z,15.10
2018-11-29T13:50:50.447Z,15.33
2018-11-29T13:53:17.969Z,15.90
2018-11-29T13:55:45.499Z,14.77
2018-11-29T13:58:13.079Z,14.37
2018-11-29T14:00:40.579Z,6.33
2018-11-29T14:03:09.903Z,9.90
2018-11-29T14:05:37.335Z,14.13
2018-11-29T14:08:06.131Z,14.57
2018-11-29T14:10:33.739Z,14.40
2018-11-29T14:13:01.241Z,12.07
2018-11-29T14:15:28.824Z,13.70
2018-11-29T14:17:56.333Z,12.23
2018-11-29T14:20:24.011Z,12.80
2018-11-29T14:22:51.619Z,14.73
2018-11-29T14:25:19.121Z,14.53
2018-11-29T14:27:47.717Z,14.60
2018-11-29T14:30:16.396Z,15.50
2018-11-29T14:32:43.989Z,16.03
2018-11-29T14:35:11.581Z,12.53
2018-11-29T14:37:39.330Z,8.60
2018-11-29T14:40:10.117Z,13.13
2018-11-29T14:42:37.741Z,12.97
2018-11-29T14:45:07.844Z,10.40
2018-11-29T14:47:35.462Z,6.10
2018-11-29T14:50:04.160Z,10.73
2018-11-29T14:52:31.718Z,8.77
2018-11-29T14:54:59.165Z,10.87
2018-11-29T14:57:26.633Z,10.90
2018-11-29T14:59:54.200Z,12.57
2018-11-29T15:02:21.747Z,11.63
2018-11-29T15:04:50.058Z,6.07
2018-11-29T15:07:17.717Z,11.03
2018-11-29T15:09:45.361Z,9.17
2018-11-29T15:12:13.022Z,10.13
2018-11-29T15:14:40.576Z,9.53
2018-11-29T15:17:08.433Z,6.43
2018-11-29T15:19:35.998Z,8.63
2018-11-29T15:22:03.515Z,8.97
2018-11-29T15:24:30.975Z,12.17
2018-11-29T15:26:58.557Z,8.27
2018-11-29T15:29:26.013Z,9.27
2018-11-29T15:31:53.511Z,7.60
2018-11-29T15:34:20.971Z,8.17
2018-11-29T15:36:48.631Z,9.47
2018-11-29T15:39:16.172Z,8.53
2018-11-29T15:41:43.672Z,8.40
2018-11-29T15:44:11.231Z,10.20
2018-11-29T15:46:38.746Z,9.17
2018-11-29T15:49:06.244Z,9.17
2018-11-29T15:51:33.753Z,12.63
2018-11-29T15:54:01.317Z,11.50
2018-11-29T15:56:28.799Z,10.97
2018-11-29T15:58:56.477Z,7.73
2018-11-29T16:01:24.005Z,7.90
2018-11-29T16:03:51.510Z,6.17
2018-11-29T16:06:19.032Z,5.97
2018-11-29T16:08:46.695Z,9.20
2018-11-29T16:11:14.171Z,7.73
2018-11-29T16:13:41.652Z,6.73
2018-11-29T16:16:09.198Z,7.20
2018-11-29T16:18:36.787Z,8.53
2018-11-29T16:21:04.585Z,11.40
2018-11-29T16:23:32.163Z,7.87
2018-11-29T16:25:59.951Z,6.30
2018-11-29T16:28:27.471Z,12.27
2018-11-29T16:30:56.597Z,11.17
2018-11-29T16:33:34.604Z,8.87
2018-11-29T16:36:02.212Z,8.03
2018-11-29T16:38:29.960Z,11.37
2018-11-29T16:40:57.548Z,10.37
2018-11-29T16:43:25.076Z,12.07
2018-11-29T16:45:52.598Z,10.90
2018-11-29T16:48:20.208Z,7.47
2018-11-29T16:50:47.752Z,12.63
2018-11-29T16:53:15.285Z,11.50
2018-11-29T16:55:42.825Z,10.23
2018-11-29T16:58:12.960Z,11.10
2018-11-29T17:00:40.456Z,7.60
2018-11-29T17:03:08.133Z,10.40
2018-11-29T17:05:35.794Z,7.10
2018-11-29T17:08:03.483Z,9.83
2018-11-29T17:10:31.094Z,9.93
2018-11-29T17:13:00.190Z,9.23
2018-11-29T17:15:27.754Z,9.43
2018-11-29T17:17:55.371Z,6.93
2018-11-29T17:20:22.865Z,11.37
2018-11-29T17:22:53.103Z,9.60
2018-11-29T17:25:20.608Z,12.30
2018-11-29T17:27:48.963Z,7.03
2018-11-29T17:30:21.563Z,7.23
2018-11-29T17:32:50.135Z,11.90
2018-11-29T17:35:17.641Z,5.73
2018-11-29T17:37:45.160Z,11.97
2018-11-29T17:40:13.832Z,7.00
2018-11-29T17:42:41.518Z,12.00
2018-11-29T17:45:11.159Z,12.13
2018-11-29T17:47:38.798Z,9.43
2018-11-29T17:50:09.487Z,6.57
2018-11-29T17:52:36.987Z,7.90
2018-11-29T17:55:05.611Z,8.17
2018-11-29T17:57:33.191Z,9.27
2018-11-29T18:00:00.789Z,11.03
2018-11-29T18:02:28.367Z,9.60
2018-11-29T18:04:55.853Z,8.00
2018-11-29T18:07:23.377Z,7.30
2018-11-29T18:09:50.967Z,11.30
2018-11-29T18:12:18.612Z,10.30
2018-11-29T18:14:46.169Z,13.20
2018-11-29T18:17:13.695Z,10.90
2018-11-29T18:19:41.191Z,10.60
2018-11-29T18:22:08.763Z,12.60
2018-11-29T18:24:36.314Z,11.13
2018-11-29T18:27:03.953Z,7.93
2018-11-29T18:29:31.460Z,7.97
2018-11-29T18:31:58.951Z,11.60
2018-11-29T18:34:26.593Z,10.07
2018-11-29T18:36:53.958Z,9.30
2018-11-29T18:39:21.434Z,11.13
2018-11-29T18:41:48.940Z,11.13
2018-11-29T18:44:16.551Z,10.77
2018-11-29T18:46:44.079Z,11.30
2018-11-29T18:49:11.537Z,11.97
2018-11-29T18:51:39.035Z,11.10
2018-11-29T18:54:06.541Z,12.40
2018-11-29T18:56:34.887Z,10.67
2018-11-29T18:59:02.500Z,10.53
2018-11-29T19:01:30.022Z,11.07
2018-11-29T19:03:57.545Z,9.43
2018-11-29T19:06:25.103Z,10.73
2018-11-29T19:08:52.643Z,11.53
2018-11-29T19:11:20.260Z,8.03
2018-11-29T19:13:47.728Z,10.37
2018-11-29T19:16:15.313Z,8.37
2018-11-29T19:18:42.837Z,10.07
2018-11-29T19:21:10.431Z,11.00
2018-11-29T19:23:38.055Z,11.77
2018-11-29T19:26:06.564Z,10.73
2018-11-29T19:28:34.029Z,11.40
2018-11-29T19:31:01.505Z,10.67
2018-11-29T19:33:29.042Z,11.17
2018-11-29T19:35:56.462Z,10.77
2018-11-29T19:38:23.953Z,10.60
2018-11-29T19:40:51.467Z,10.53
2018-11-29T19:43:18.997Z,9.23
2018-11-29T19:45:46.535Z,10.40
2018-11-29T19:48:14.104Z,14.13
2018-11-29T19:50:41.664Z,13.70
2018-11-29T19:53:15.123Z,15.57
2018-11-29T19:55:42.753Z,14.37
2018-11-29T19:58:10.176Z,11.13
2018-11-29T20:00:38.261Z,11.80
2018-11-29T20:03:06.206Z,11.47
2018-11-29T20:05:33.735Z,10.53
2018-11-29T20:08:01.216Z,10.67
2018-11-29T20:10:28.709Z,10.60
2018-11-29T20:13:01.919Z,8.83
2018-11-29T20:15:29.479Z,11.63
2018-11-29T20:17:57.011Z,10.30
2018-11-29T20:20:24.571Z,10.30
2018-11-29T20:22:52.088Z,10.47
2018-11-29T20:25:20.939Z,9.87
2018-11-29T20:27:48.601Z,10.70
2018-11-29T20:30:17.134Z,10.57
2018-11-29T20:32:45.224Z,10.17
2018-11-29T20:35:13.043Z,10.20
2018-11-29T20:37:40.759Z,9.97
2018-11-29T20:40:16.712Z,10.60
2018-11-29T20:42:45.144Z,9.90
2018-11-29T20:45:22.018Z,10.00
2018-11-29T20:47:49.555Z,9.90
2018-11-29T20:50:18.615Z,9.87
2018-11-29T20:52:46.879Z,10.03
2018-11-29T20:55:16.336Z,9.17
2018-11-29T20:57:44.009Z,9.60
2018-11-29T21:00:12.949Z,9.97
2018-11-29T21:02:40.664Z,7.47
2018-11-29T21:05:09.952Z,8.00
2018-11-29T21:07:37.523Z,9.73
2018-11-29T21:10:19.369Z,9.33
2018-11-29T21:12:46.856Z,8.90
2018-11-29T21:15:14.417Z,9.03
2018-11-29T21:17:42.003Z,9.37
2018-11-29T21:20:11.729Z,8.83
2018-11-29T21:22:39.234Z,9.30
2018-11-29T21:25:09.495Z,8.57
2018-11-29T21:27:37.013Z,10.10
2018-11-29T21:30:08.516Z,8.23
2018-11-29T21:32:36.000Z,9.30
2018-11-29T21:35:03.922Z,9.00
2018-11-29T21:37:34.648Z,9.03
2018-11-29T21:40:02.436Z,9.10
2018-11-29T21:42:29.991Z,9.93
2018-11-29T21:44:57.546Z,9.47
2018-11-29T21:47:25.103Z,8.57
2018-11-29T21:49:52.700Z,9.07
2018-11-29T21:52:20.182Z,8.83
2018-11-29T21:54:47.811Z,9.13
2018-11-29T21:57:15.414Z,8.73
2018-11-29T21:59:43.078Z,8.20
2018-11-29T22:02:10.691Z,8.47
2018-11-29T22:04:38.192Z,9.07
2018-11-29T22:07:05.724Z,8.57
2018-11-29T22:09:33.237Z,8.30
2018-11-29T22:12:00.807Z,8.07
2018-11-29T22:14:28.335Z,8.43
2018-11-29T22:16:55.959Z,8.33
2018-11-29T22:19:23.625Z,9.17
2018-11-29T22:21:51.178Z,9.17
2018-11-29T22:24:18.687Z,8.63
2018-11-29T22:26:46.215Z,7.73
2018-11-29T22:29:13.805Z,9.93
2018-11-29T22:31:41.347Z,8.97
2018-11-29T22:34:08.853Z,8.70
2018-11-29T22:36:36.323Z,8.83
2018-11-29T22:39:06.281Z,9.73
2018-11-29T22:41:33.839Z,8.17
2018-11-29T22:44:01.404Z,8.23
2018-11-29T22:46:28.999Z,8.60
2018-11-29T22:48:56.473Z,8.43
2018-11-29T22:51:23.951Z,8.57
2018-11-29T22:53:51.473Z,8.50
2018-11-29T22:56:18.959Z,8.27
2018-11-29T22:58:46.521Z,8.03
2018-11-29T23:01:19.590Z,8.63
2018-11-29T23:03:47.210Z,8.10
2018-11-29T23:06:14.704Z,8.23
2018-11-29T23:08:42.223Z,8.53
2018-11-29T23:11:09.842Z,8.40
2018-11-29T23:13:37.332Z,7.80
2018-11-29T23:16:05.405Z,6.93
2018-11-29T23:18:32.913Z,8.53
2018-11-29T23:21:00.388Z,8.20
2018-11-29T23:23:27.846Z,7.90
2018-11-29T23:25:55.303Z,7.47
2018-11-29T23:28:22.837Z,7.00
2018-11-29T23:30:50.291Z,8.07
2018-11-29T23:33:17.777Z,7.57
2018-11-29T23:35:45.298Z,7.47
2018-11-29T23:38:12.816Z,7.50
2018-11-29T23:40:40.272Z,7.73
2018-11-29T23:43:07.768Z,7.60
2018-11-29T23:45:35.370Z,7.33
2018-11-29T23:48:02.844Z,7.27
2018-11-29T23:50:30.314Z,8.13
2018-11-29T23:52:57.782Z,6.80
2018-11-29T23:55:25.297Z,7.87
2018-11-29T23:57:52.742Z,7.17
